createdAt,value
2022-09-30T00:01:34.310Z,10.89
2022-09-30T00:11:59.033Z,10.71
2022-09-30T00:22:23.620Z,10.78
2022-09-30T00:32:48.290Z,10.75
2022-09-30T00:43:16.875Z,10.97
2022-09-30T00:53:47.910Z,11.15
2022-09-30T01:04:15.332Z,11.34
2022-09-30T01:14:41.200Z,11.45
2022-09-30T01:25:37.984Z,11.19
2022-09-30T01:36:20.316Z,10.88
2022-09-30T01:46:51.693Z,10.99
2022-09-30T01:57:22.512Z,10.99
2022-09-30T02:07:51.643Z,10.93
2022-09-30T02:18:22.052Z,11.13
2022-09-30T02:28:50.548Z,11.17
2022-09-30T02:39:21.506Z,11.27
2022-09-30T02:49:49.570Z,11.22
2022-09-30T03:00:14.486Z,11.47
2022-09-30T03:10:40.052Z,11.24
2022-09-30T03:21:18.385Z,11.21
2022-09-30T03:31:52.779Z,11.27
2022-09-30T03:42:23.663Z,11.04
2022-09-30T03:52:49.388Z,11.00
2022-09-30T04:03:13.998Z,10.93
2022-09-30T04:13:38.955Z,11.12
2022-09-30T04:24:03.856Z,11.32
2022-09-30T04:34:28.475Z,11.24
2022-09-30T04:44:53.069Z,11.32
2022-09-30T04:55:17.901Z,11.23
2022-09-30T05:05:44.736Z,10.98
2022-09-30T05:16:10.359Z,10.89
2022-09-30T05:26:35.036Z,10.84
2022-09-30T05:36:59.676Z,10.93
2022-09-30T05:47:24.438Z,11.09
2022-09-30T05:57:49.937Z,11.15
2022-09-30T06:08:15.483Z,11.21
2022-09-30T06:18:41.047Z,11.42
2022-09-30T06:29:05.755Z,11.49
2022-09-30T06:39:30.560Z,11.50
2022-09-30T06:49:58.377Z,11.44
2022-09-30T07:00:23.963Z,11.26
2022-09-30T07:10:48.882Z,11.18
2022-09-30T07:22:19.749Z,11.23
2022-09-30T07:32:44.408Z,11.34
2022-09-30T07:43:08.972Z,11.46
2022-09-30T07:53:33.638Z,11.46
2022-09-30T08:04:00.366Z,11.43
2022-09-30T08:14:27.436Z,11.48
2022-09-30T08:24:52.092Z,11.65
2022-09-30T08:35:16.963Z,11.74
2022-09-30T08:45:51.400Z,11.83
2022-09-30T08:56:23.356Z,11.84
2022-09-30T09:06:57.342Z,11.91
2022-09-30T09:17:34.697Z,12.00
2022-09-30T09:28:00.894Z,11.98
2022-09-30T09:38:35.280Z,12.02
2022-09-30T09:49:31.676Z,11.97
2022-09-30T09:59:58.190Z,11.94
2022-09-30T10:10:24.549Z,12.02
2022-09-30T10:20:55.324Z,12.15
2022-09-30T10:31:24.811Z,12.32
2022-09-30T10:41:50.696Z,12.29
2022-09-30T10:52:20.808Z,12.38
2022-09-30T11:02:54.006Z,12.53
2022-09-30T11:13:24.883Z,12.61
2022-09-30T11:23:54.897Z,12.61
2022-09-30T11:34:36.166Z,12.53
2022-09-30T11:45:09.581Z,12.43
2022-09-30T11:55:51.661Z,12.51
2022-09-30T12:06:23.657Z,12.61
2022-09-30T12:16:50.753Z,12.71
2022-09-30T12:27:21.249Z,12.71
2022-09-30T12:38:06.633Z,12.69
2022-09-30T12:48:37.265Z,12.70
2022-09-30T12:59:03.327Z,12.84
2022-09-30T13:09:33.899Z,13.01
2022-09-30T13:19:58.558Z,13.24
2022-09-30T13:30:37.846Z,13.46
2022-09-30T13:41:08.999Z,13.53
2022-09-30T13:51:35.035Z,13.59
2022-09-30T14:02:26.613Z,13.62
2022-09-30T14:13:05.862Z,13.65
2022-09-30T14:23:30.526Z,13.62
2022-09-30T14:33:56.076Z,13.74
2022-09-30T14:44:21.783Z,13.63
2022-09-30T14:54:48.383Z,13.59
2022-09-30T15:05:15.517Z,13.64
2022-09-30T15:15:40.543Z,13.74
2022-09-30T15:26:06.576Z,13.75
2022-09-30T15:36:31.678Z,13.68
2022-09-30T15:47:05.518Z,13.81
2022-09-30T15:57:53.807Z,13.84
2022-09-30T16:08:23.369Z,13.72
2022-09-30T16:18:48.822Z,13.69
2022-09-30T16:29:17.003Z,13.61
2022-09-30T16:39:42.579Z,13.63
2022-09-30T16:50:19.008Z,13.57
2022-09-30T17:00:44.794Z,13.60
2022-09-30T17:11:10.535Z,13.58
2022-09-30T17:21:35.372Z,13.48
2022-09-30T17:32:00.527Z,13.38
2022-09-30T17:42:43.589Z,13.53
2022-09-30T17:53:08.541Z,13.59
2022-09-30T18:03:33.236Z,13.65
2022-09-30T18:13:59.534Z,13.61
2022-09-30T18:24:38.906Z,13.53
2022-09-30T18:35:06.582Z,13.60
2022-09-30T18:45:36.421Z,13.59
2022-09-30T18:56:01.831Z,13.54
2022-09-30T19:06:26.965Z,13.60
2022-09-30T19:16:52.119Z,13.50
2022-09-30T19:27:17.103Z,13.52
2022-09-30T19:37:52.251Z,13.49
2022-09-30T19:48:22.235Z,13.23
2022-09-30T19:58:48.840Z,13.14
2022-09-30T20:09:13.853Z,13.19
2022-09-30T20:19:38.698Z,13.31
2022-09-30T20:30:03.751Z,13.33
2022-09-30T20:40:28.536Z,13.13
2022-09-30T20:50:53.207Z,13.02
2022-09-30T21:01:20.103Z,12.90
2022-09-30T21:11:44.818Z,13.04
2022-09-30T21:22:10.060Z,13.25
2022-09-30T21:32:34.744Z,13.42
2022-09-30T21:42:59.932Z,13.38
2022-09-30T21:53:26.836Z,13.20
2022-09-30T22:03:51.489Z,13.29
2022-09-30T22:14:16.422Z,13.36
2022-09-30T22:24:41.042Z,13.41
2022-09-30T22:35:25.295Z,13.20
2022-09-30T22:45:49.960Z,13.00
2022-09-30T22:56:14.674Z,13.03
2022-09-30T23:06:39.236Z,13.16
2022-09-30T23:17:03.868Z,13.18
2022-09-30T23:27:28.642Z,13.16
2022-09-30T23:37:53.298Z,13.23
2022-09-30T23:48:18.019Z,13.08
2022-09-30T23:58:43.361Z,13.05
